createdAt,value
2017-03-14T00:00:07.543Z,929.18
2017-03-14T00:00:22.146Z,929.15
2017-03-14T00:00:36.668Z,929.14
2017-03-14T00:01:22.215Z,929.09
2017-03-14T00:01:36.857Z,929.14
2017-03-14T00:01:51.441Z,929.12
2017-03-14T00:02:36.924Z,929.17
2017-03-14T00:03:22.464Z,929.12
2017-03-14T00:03:37.048Z,929.19
2017-03-14T00:04:22.999Z,929.19
2017-03-14T00:05:08.506Z,929.24
2017-03-14T00:05:23.068Z,929.21
2017-03-14T00:06:08.579Z,929.19
2017-03-14T00:06:23.177Z,929.25
2017-03-14T00:06:37.791Z,929.24
2017-03-14T00:06:52.379Z,929.21
2017-03-14T00:07:06.978Z,929.28
2017-03-14T00:07:21.597Z,929.33
2017-03-14T00:07:36.207Z,929.29
2017-03-14T00:07:50.997Z,929.3
2017-03-14T00:08:37.274Z,929.24
2017-03-14T00:08:51.848Z,929.33
2017-03-14T00:09:06.455Z,929.33
2017-03-14T00:09:21.037Z,929.33
2017-03-14T00:09:35.630Z,929.3
2017-03-14T00:10:47.040Z,929.35
2017-03-14T00:11:32.739Z,929.34
2017-03-14T00:13:03.749Z,929.35
2017-03-14T00:13:18.367Z,929.37
2017-03-14T00:13:32.957Z,929.33
2017-03-14T00:13:47.629Z,929.45
2017-03-14T00:14:02.234Z,929.4
2017-03-14T00:14:16.784Z,929.37
2017-03-14T00:14:43.577Z,929.38
2017-03-14T00:15:29.001Z,929.36
2017-03-14T00:15:43.636Z,929.36
2017-03-14T00:15:58.231Z,929.39
2017-03-14T00:16:12.793Z,929.41
2017-03-14T00:17:12.877Z,929.41
2017-03-14T00:18:32.300Z,929.46
2017-03-14T00:18:47.681Z,929.5
2017-03-14T00:19:47.749Z,929.47
2017-03-14T00:20:02.312Z,929.47
2017-03-14T00:20:16.894Z,929.47
2017-03-14T00:21:21.841Z,929.52
2017-03-14T00:21:36.389Z,929.49
2017-03-14T00:21:50.934Z,929.54
2017-03-14T00:22:05.474Z,929.51
2017-03-14T00:22:30.364Z,929.51
2017-03-14T00:22:45.020Z,929.53
2017-03-14T00:23:35.780Z,929.52
2017-03-14T00:23:50.380Z,929.56
2017-03-14T00:24:04.998Z,929.53
2017-03-14T00:24:19.621Z,929.52
2017-03-14T00:24:34.258Z,929.55
2017-03-14T00:24:48.889Z,929.56
2017-03-14T00:25:39.639Z,929.57
2017-03-14T00:25:54.266Z,929.6
2017-03-14T00:26:08.911Z,929.58
2017-03-14T00:26:23.457Z,929.59
2017-03-14T00:26:38.061Z,929.58
2017-03-14T00:27:43.395Z,929.6
2017-03-14T00:27:58.008Z,929.63
2017-03-14T00:28:12.621Z,929.57
2017-03-14T00:29:12.657Z,929.59
2017-03-14T00:29:27.332Z,929.57
2017-03-14T00:30:12.849Z,929.59
2017-03-14T00:31:12.986Z,929.6
2017-03-14T00:31:27.551Z,929.61
2017-03-14T00:31:45.218Z,929.58
2017-03-14T00:31:59.813Z,929.62
2017-03-14T00:32:45.454Z,929.64
2017-03-14T00:33:00.298Z,929.62
2017-03-14T00:33:14.969Z,929.6
2017-03-14T00:33:29.566Z,929.62
2017-03-14T00:34:15.058Z,929.62
2017-03-14T00:34:29.667Z,929.64
2017-03-14T00:34:44.226Z,929.62
2017-03-14T00:34:58.808Z,929.63
2017-03-14T00:35:50.033Z,929.63
2017-03-14T00:36:04.635Z,929.63
2017-03-14T00:36:19.256Z,929.62
2017-03-14T00:36:33.840Z,929.67
2017-03-14T00:36:48.383Z,929.63
2017-03-14T00:37:02.986Z,929.62
2017-03-14T00:37:48.523Z,929.65
2017-03-14T00:38:03.099Z,929.63
2017-03-14T00:38:24.047Z,929.64
2017-03-14T00:39:09.568Z,929.62
2017-03-14T00:39:24.080Z,929.64
2017-03-14T00:39:38.697Z,929.73
2017-03-14T00:39:59.857Z,929.68
2017-03-14T00:40:14.442Z,929.65
2017-03-14T00:40:29.079Z,929.66
2017-03-14T00:40:43.640Z,929.61
2017-03-14T00:40:58.255Z,929.63
2017-03-14T00:41:12.895Z,929.62
2017-03-14T00:41:27.484Z,929.64
2017-03-14T00:41:42.092Z,929.64
2017-03-14T00:42:47.009Z,929.65
2017-03-14T00:43:01.811Z,929.63
2017-03-14T00:43:16.593Z,929.61
2017-03-14T00:43:31.206Z,929.58
2017-03-14T00:43:45.812Z,929.59
2017-03-14T00:44:31.373Z,929.52
2017-03-14T00:44:46.006Z,929.59
2017-03-14T00:45:00.665Z,929.6
2017-03-14T00:45:15.287Z,929.57
2017-03-14T00:45:29.893Z,929.59
2017-03-14T00:45:44.488Z,929.63
2017-03-14T00:45:59.045Z,929.61
2017-03-14T00:46:19.526Z,929.64
2017-03-14T00:46:34.157Z,929.62
2017-03-14T00:46:54.411Z,929.6
2017-03-14T00:47:09.679Z,929.59
2017-03-14T00:47:55.172Z,929.64
2017-03-14T00:48:40.680Z,929.58
2017-03-14T00:48:55.277Z,929.59
2017-03-14T00:49:14.866Z,929.59
2017-03-14T00:49:29.753Z,929.58
2017-03-14T00:49:44.379Z,929.55
2017-03-14T00:49:58.938Z,929.56
2017-03-14T00:50:44.459Z,929.61
2017-03-14T00:50:59.053Z,929.57
2017-03-14T00:51:13.640Z,929.59
2017-03-14T00:51:59.757Z,929.59
2017-03-14T00:52:35.475Z,929.6
2017-03-14T00:52:50.044Z,929.57
2017-03-14T00:53:04.679Z,929.57
2017-03-14T00:53:19.227Z,929.56
2017-03-14T00:53:33.758Z,929.6
2017-03-14T00:53:48.379Z,929.59
2017-03-14T00:54:03.009Z,929.55
2017-03-14T00:54:17.622Z,929.54
2017-03-14T00:54:42.323Z,929.57
2017-03-14T00:54:56.884Z,929.57
2017-03-14T00:55:11.516Z,929.56
2017-03-14T00:55:26.065Z,929.56
2017-03-14T00:55:40.637Z,929.54
2017-03-14T00:55:55.236Z,929.5
2017-03-14T00:56:09.895Z,929.57
2017-03-14T00:56:24.475Z,929.59
2017-03-14T00:56:39.029Z,929.56
2017-03-14T00:57:24.729Z,929.55
2017-03-14T00:57:39.337Z,929.5
2017-03-14T00:57:53.956Z,929.5
2017-03-14T00:58:08.782Z,929.55
2017-03-14T00:58:25.480Z,929.55
2017-03-14T00:58:40.350Z,929.56
2017-03-14T00:58:54.925Z,929.53
2017-03-14T00:59:09.513Z,929.56
2017-03-14T00:59:24.121Z,929.57
2017-03-14T01:00:09.607Z,929.56
2017-03-14T01:00:24.173Z,929.58
2017-03-14T01:00:38.746Z,929.58
2017-03-14T01:00:53.378Z,929.54
2017-03-14T01:01:07.944Z,929.56
2017-03-14T01:01:22.561Z,929.57
2017-03-14T01:01:37.137Z,929.57
2017-03-14T01:01:51.760Z,929.54
2017-03-14T01:02:37.287Z,929.58
2017-03-14T01:02:51.907Z,929.56
2017-03-14T01:03:06.641Z,929.62
2017-03-14T01:03:21.190Z,929.62
2017-03-14T01:03:35.722Z,929.61
2017-03-14T01:03:50.298Z,929.56
2017-03-14T01:04:04.903Z,929.54
2017-03-14T01:04:19.499Z,929.55
2017-03-14T01:04:34.097Z,929.59
2017-03-14T01:06:36.258Z,929.57
2017-03-14T01:07:36.345Z,929.62
2017-03-14T01:08:10.203Z,929.57
2017-03-14T01:08:24.828Z,929.62
2017-03-14T01:08:39.428Z,929.58
2017-03-14T01:09:06.796Z,929.59
2017-03-14T01:09:21.451Z,929.62
2017-03-14T01:09:36.132Z,929.64
2017-03-14T01:09:50.662Z,929.64
2017-03-14T01:10:05.236Z,929.64
2017-03-14T01:10:19.804Z,929.63
2017-03-14T01:10:34.476Z,929.64
2017-03-14T01:11:19.957Z,929.62
2017-03-14T01:12:05.415Z,929.6
2017-03-14T01:12:20.050Z,929.58
2017-03-14T01:12:34.609Z,929.62
2017-03-14T01:12:49.129Z,929.61
2017-03-14T01:13:03.706Z,929.64
2017-03-14T01:13:49.525Z,929.61
2017-03-14T01:14:38.275Z,929.57
2017-03-14T01:14:52.824Z,929.61
2017-03-14T01:15:07.395Z,929.61
2017-03-14T01:15:21.943Z,929.6
2017-03-14T01:15:36.550Z,929.62
2017-03-14T01:15:51.097Z,929.61
2017-03-14T01:16:05.635Z,929.59
2017-03-14T01:17:17.853Z,929.61
2017-03-14T01:17:32.399Z,929.59
2017-03-14T01:17:47.013Z,929.61
2017-03-14T01:18:32.493Z,929.59
2017-03-14T01:18:47.099Z,929.57
2017-03-14T01:19:32.772Z,929.61
2017-03-14T01:20:18.515Z,929.62
2017-03-14T01:20:33.101Z,929.61
2017-03-14T01:20:47.702Z,929.6
2017-03-14T01:21:02.292Z,929.61
2017-03-14T01:21:16.852Z,929.64
2017-03-14T01:21:31.465Z,929.61
2017-03-14T01:21:46.078Z,929.63
2017-03-14T01:22:00.678Z,929.62
2017-03-14T01:22:15.270Z,929.58
2017-03-14T01:22:30.020Z,929.61
2017-03-14T01:22:44.563Z,929.63
2017-03-14T01:22:59.148Z,929.6
2017-03-14T01:23:13.701Z,929.65
2017-03-14T01:23:59.219Z,929.55
2017-03-14T01:24:13.829Z,929.61
2017-03-14T01:24:59.282Z,929.59
2017-03-14T01:25:14.042Z,929.54
2017-03-14T01:26:49.824Z,929.6
2017-03-14T01:27:04.437Z,929.6
2017-03-14T01:27:19.189Z,929.58
2017-03-14T01:27:33.765Z,929.57
2017-03-14T01:27:55.438Z,929.59
2017-03-14T01:28:10.066Z,929.59
2017-03-14T01:28:24.665Z,929.54
2017-03-14T01:28:39.316Z,929.58
2017-03-14T01:28:53.973Z,929.57
2017-03-14T01:29:08.821Z,929.61
2017-03-14T01:29:23.422Z,929.57
2017-03-14T01:29:38.000Z,929.56
2017-03-14T01:29:52.823Z,929.58
2017-03-14T01:30:07.441Z,929.61
2017-03-14T01:30:21.994Z,929.59
2017-03-14T01:30:36.610Z,929.6
2017-03-14T01:30:51.203Z,929.63
2017-03-14T01:31:05.807Z,929.62
2017-03-14T01:31:20.381Z,929.63
2017-03-14T01:31:46.094Z,929.66
2017-03-14T01:32:00.993Z,929.61
2017-03-14T01:32:17.265Z,929.6
2017-03-14T01:32:32.803Z,929.59
2017-03-14T01:32:47.574Z,929.62
2017-03-14T01:33:02.232Z,929.6
2017-03-14T01:33:16.802Z,929.6
2017-03-14T01:33:31.604Z,929.59
2017-03-14T01:33:46.774Z,929.6
2017-03-14T01:34:01.371Z,929.65
2017-03-14T01:34:16.014Z,929.63
2017-03-14T01:34:30.577Z,929.62
2017-03-14T01:34:45.197Z,929.61
2017-03-14T01:34:59.800Z,929.63
2017-03-14T01:35:21.794Z,929.66
2017-03-14T01:35:37.210Z,929.64
2017-03-14T01:35:51.798Z,929.65
2017-03-14T01:36:06.418Z,929.66
2017-03-14T01:36:51.948Z,929.67
2017-03-14T01:37:06.506Z,929.65
2017-03-14T01:37:21.070Z,929.65
2017-03-14T01:37:35.674Z,929.66
2017-03-14T01:37:50.257Z,929.63
2017-03-14T01:38:04.838Z,929.62
2017-03-14T01:38:19.403Z,929.62
2017-03-14T01:38:34.006Z,929.61
2017-03-14T01:38:49.242Z,929.66
2017-03-14T01:39:03.742Z,929.62
2017-03-14T01:39:21.376Z,929.65
2017-03-14T01:39:49.424Z,929.62
2017-03-14T01:40:38.102Z,929.67
2017-03-14T01:41:11.969Z,929.66
2017-03-14T01:41:28.033Z,929.6
2017-03-14T01:41:42.658Z,929.63
2017-03-14T01:42:28.220Z,929.65
2017-03-14T01:42:42.803Z,929.63
2017-03-14T01:42:57.459Z,929.65
2017-03-14T01:43:12.052Z,929.66
2017-03-14T01:43:26.633Z,929.66
2017-03-14T01:44:12.300Z,929.65
2017-03-14T01:44:26.882Z,929.64
2017-03-14T01:44:41.533Z,929.62
2017-03-14T01:45:27.056Z,929.63
2017-03-14T01:45:41.719Z,929.62
2017-03-14T01:45:56.323Z,929.64
2017-03-14T01:46:10.967Z,929.59
2017-03-14T01:46:25.562Z,929.6
2017-03-14T01:47:25.662Z,929.55
2017-03-14T01:47:40.206Z,929.62
2017-03-14T01:47:54.855Z,929.59
2017-03-14T01:48:09.470Z,929.57
2017-03-14T01:48:24.053Z,929.58
2017-03-14T01:48:38.598Z,929.56
2017-03-14T01:48:53.270Z,929.56
2017-03-14T01:49:07.866Z,929.57
2017-03-14T01:49:22.442Z,929.54
2017-03-14T01:49:37.048Z,929.53
2017-03-14T01:49:51.671Z,929.54
2017-03-14T01:50:06.319Z,929.55
2017-03-14T01:50:20.907Z,929.55
2017-03-14T01:50:35.995Z,929.63
2017-03-14T01:50:50.584Z,929.56
2017-03-14T01:51:05.187Z,929.55
2017-03-14T01:51:19.802Z,929.54
2017-03-14T01:51:35.642Z,929.49
2017-03-14T01:52:00.385Z,929.47
2017-03-14T01:52:14.976Z,929.61
2017-03-14T01:52:30.341Z,929.53
2017-03-14T01:52:44.934Z,929.53
2017-03-14T01:52:59.547Z,929.53
2017-03-14T01:53:14.135Z,929.51
2017-03-14T01:53:28.765Z,929.56
2017-03-14T01:53:43.394Z,929.51
2017-03-14T01:53:57.991Z,929.5
2017-03-14T01:54:13.273Z,929.48
2017-03-14T01:54:27.916Z,929.45
2017-03-14T01:54:43.257Z,929.47
2017-03-14T01:54:57.903Z,929.46
2017-03-14T01:55:12.511Z,929.43
2017-03-14T01:55:27.106Z,929.46
2017-03-14T01:55:41.746Z,929.41
2017-03-14T01:55:56.278Z,929.4
2017-03-14T01:56:10.824Z,929.44
2017-03-14T01:56:25.466Z,929.42
2017-03-14T01:56:40.026Z,929.39
2017-03-14T01:56:54.608Z,929.43
2017-03-14T01:57:09.233Z,929.42
2017-03-14T01:57:23.823Z,929.36
2017-03-14T01:57:38.384Z,929.38
2017-03-14T01:57:52.973Z,929.39
2017-03-14T01:58:08.521Z,929.38
2017-03-14T01:58:23.080Z,929.34
2017-03-14T01:58:37.746Z,929.39
2017-03-14T01:58:52.803Z,929.36
2017-03-14T01:59:07.343Z,929.39
2017-03-14T01:59:22.491Z,929.45
2017-03-14T01:59:37.390Z,929.39
2017-03-14T01:59:52.202Z,929.39
2017-03-14T02:00:07.104Z,929.39
2017-03-14T02:00:21.684Z,929.38
2017-03-14T02:00:36.259Z,929.37
2017-03-14T02:00:50.877Z,929.39
2017-03-14T02:01:06.682Z,929.41
2017-03-14T02:01:21.283Z,929.39
2017-03-14T02:01:35.898Z,929.37
2017-03-14T02:01:50.471Z,929.39
2017-03-14T02:02:05.028Z,929.39
2017-03-14T02:02:19.646Z,929.39
2017-03-14T02:02:34.166Z,929.43
2017-03-14T02:02:48.685Z,929.39
2017-03-14T02:03:03.266Z,929.41
2017-03-14T02:03:17.844Z,929.41
2017-03-14T02:03:32.381Z,929.4
2017-03-14T02:03:47.036Z,929.39
2017-03-14T02:04:01.541Z,929.4
2017-03-14T02:04:16.074Z,929.45
2017-03-14T02:04:30.714Z,929.42
2017-03-14T02:04:45.246Z,929.42
2017-03-14T02:04:59.808Z,929.4
2017-03-14T02:05:16.871Z,929.38
2017-03-14T02:05:31.413Z,929.43
2017-03-14T02:05:46.616Z,929.44
2017-03-14T02:06:01.226Z,929.45
2017-03-14T02:06:15.821Z,929.45
2017-03-14T02:06:30.418Z,929.44
2017-03-14T02:06:44.961Z,929.45
2017-03-14T02:06:59.487Z,929.43
2017-03-14T02:07:14.066Z,929.44
2017-03-14T02:07:28.612Z,929.4
2017-03-14T02:07:43.169Z,929.42
2017-03-14T02:07:57.748Z,929.45
2017-03-14T02:08:12.334Z,929.42
2017-03-14T02:08:26.902Z,929.43
2017-03-14T02:08:41.515Z,929.42
2017-03-14T02:08:56.125Z,929.45
2017-03-14T02:09:10.701Z,929.45
2017-03-14T02:09:25.212Z,929.47
2017-03-14T02:09:39.788Z,929.42
2017-03-14T02:09:54.395Z,929.44
2017-03-14T02:10:08.946Z,929.44
2017-03-14T02:10:28.621Z,929.42
2017-03-14T02:11:09.410Z,929.4
2017-03-14T02:11:26.753Z,929.47
2017-03-14T02:11:41.317Z,929.37
2017-03-14T02:11:55.860Z,929.42
2017-03-14T02:12:10.494Z,929.37
2017-03-14T02:12:25.057Z,929.39
2017-03-14T02:12:39.625Z,929.42
2017-03-14T02:12:54.203Z,929.42
2017-03-14T02:13:08.773Z,929.39
2017-03-14T02:13:23.882Z,929.38
2017-03-14T02:13:38.432Z,929.41
2017-03-14T02:13:53.010Z,929.39
2017-03-14T02:14:07.618Z,929.37
2017-03-14T02:14:22.146Z,929.41
2017-03-14T02:14:36.907Z,929.38
2017-03-14T02:14:51.416Z,929.38
2017-03-14T02:15:05.960Z,929.41
2017-03-14T02:15:20.497Z,929.36
2017-03-14T02:15:35.083Z,929.37
2017-03-14T02:15:51.162Z,929.35
2017-03-14T02:16:05.839Z,929.38
2017-03-14T02:16:20.431Z,929.38
2017-03-14T02:16:35.047Z,929.37
2017-03-14T02:16:50.109Z,929.37
2017-03-14T02:17:05.512Z,929.4
2017-03-14T02:17:20.152Z,929.39
2017-03-14T02:17:34.743Z,929.39
2017-03-14T02:17:49.379Z,929.42
2017-03-14T02:18:03.952Z,929.42
2017-03-14T02:18:18.529Z,929.39
2017-03-14T02:18:33.133Z,929.37
2017-03-14T02:18:47.698Z,929.38
2017-03-14T02:19:02.336Z,929.35
2017-03-14T02:19:17.126Z,929.4
2017-03-14T02:19:31.728Z,929.35
2017-03-14T02:19:46.492Z,929.42
2017-03-14T02:20:01.283Z,929.41
2017-03-14T02:20:15.803Z,929.41
2017-03-14T02:20:30.292Z,929.43
2017-03-14T02:20:44.876Z,929.38
2017-03-14T02:20:59.393Z,929.39
2017-03-14T02:21:13.985Z,929.4
2017-03-14T02:21:28.592Z,929.43
2017-03-14T02:21:43.202Z,929.43
2017-03-14T02:21:58.068Z,929.42
2017-03-14T02:22:12.658Z,929.4
2017-03-14T02:22:27.199Z,929.44
2017-03-14T02:22:41.768Z,929.46
2017-03-14T02:22:56.560Z,929.48
2017-03-14T02:23:11.703Z,929.44
2017-03-14T02:23:26.297Z,929.44
2017-03-14T02:23:41.298Z,929.43
2017-03-14T02:23:55.869Z,929.45
2017-03-14T02:24:10.414Z,929.41
2017-03-14T02:24:25.010Z,929.45
2017-03-14T02:24:39.590Z,929.45
2017-03-14T02:24:54.241Z,929.42
2017-03-14T02:25:09.475Z,929.44
2017-03-14T02:25:24.067Z,929.46
2017-03-14T02:25:38.581Z,929.48
2017-03-14T02:25:53.172Z,929.42
2017-03-14T02:26:07.733Z,929.41
2017-03-14T02:26:22.272Z,929.39
2017-03-14T02:26:36.916Z,929.42
2017-03-14T02:26:51.511Z,929.42
2017-03-14T02:27:06.170Z,929.38
2017-03-14T02:27:20.793Z,929.4
2017-03-14T02:27:35.314Z,929.4
2017-03-14T02:27:49.884Z,929.37
2017-03-14T02:28:04.712Z,929.4
2017-03-14T02:28:19.329Z,929.35
2017-03-14T02:28:33.913Z,929.43
2017-03-14T02:28:48.522Z,929.43
2017-03-14T02:29:03.070Z,929.45
2017-03-14T02:29:17.715Z,929.42
2017-03-14T02:29:32.602Z,929.4
2017-03-14T02:29:47.220Z,929.36
2017-03-14T02:30:01.788Z,929.41
2017-03-14T02:30:16.360Z,929.4
2017-03-14T02:30:30.942Z,929.42
2017-03-14T02:30:45.466Z,929.41
2017-03-14T02:31:00.068Z,929.43
2017-03-14T02:31:14.646Z,929.4
2017-03-14T02:31:29.242Z,929.43
2017-03-14T02:31:43.813Z,929.39
2017-03-14T02:31:58.640Z,929.41
2017-03-14T02:32:13.275Z,929.41
2017-03-14T02:32:27.847Z,929.41
2017-03-14T02:32:42.412Z,929.42
2017-03-14T02:32:57.178Z,929.43
2017-03-14T02:33:12.061Z,929.41
2017-03-14T02:33:26.606Z,929.39
2017-03-14T02:33:41.240Z,929.47
2017-03-14T02:33:55.800Z,929.4
2017-03-14T02:34:10.400Z,929.37
2017-03-14T02:34:24.940Z,929.39
2017-03-14T02:34:39.560Z,929.43
2017-03-14T02:34:54.095Z,929.41
2017-03-14T02:35:08.690Z,929.39
2017-03-14T02:35:23.287Z,929.38
2017-03-14T02:35:37.894Z,929.37
2017-03-14T02:35:52.495Z,929.42
2017-03-14T02:36:07.045Z,929.42
2017-03-14T02:36:21.828Z,929.43
2017-03-14T02:36:36.425Z,929.38
2017-03-14T02:36:51.003Z,929.39
2017-03-14T02:37:05.567Z,929.35
2017-03-14T02:37:20.052Z,929.37
2017-03-14T02:37:34.604Z,929.36
2017-03-14T02:37:49.216Z,929.37
2017-03-14T02:38:03.778Z,929.36
2017-03-14T02:38:18.349Z,929.37
2017-03-14T02:38:32.932Z,929.36
2017-03-14T02:38:47.462Z,929.36
2017-03-14T02:39:02.031Z,929.33
2017-03-14T02:39:16.585Z,929.34
2017-03-14T02:39:31.135Z,929.34
2017-03-14T02:39:45.779Z,929.34
2017-03-14T02:40:00.300Z,929.37
2017-03-14T02:40:14.870Z,929.38
2017-03-14T02:40:29.405Z,929.33
2017-03-14T02:40:43.940Z,929.32
2017-03-14T02:40:58.495Z,929.37
2017-03-14T02:41:13.093Z,929.29
2017-03-14T02:41:27.740Z,929.29
2017-03-14T02:41:42.264Z,929.29
2017-03-14T02:41:56.830Z,929.33
2017-03-14T02:42:11.430Z,929.28
2017-03-14T02:42:25.966Z,929.34
2017-03-14T02:42:40.528Z,929.29
2017-03-14T02:42:55.076Z,929.3
2017-03-14T02:43:09.608Z,929.31
2017-03-14T02:43:24.265Z,929.26
2017-03-14T02:43:38.842Z,929.25
2017-03-14T02:43:53.417Z,929.23
2017-03-14T02:44:07.960Z,929.21
2017-03-14T02:44:22.524Z,929.24
2017-03-14T02:44:37.128Z,929.24
2017-03-14T02:44:51.878Z,929.23
2017-03-14T02:45:06.503Z,929.22
2017-03-14T02:45:21.044Z,929.26
2017-03-14T02:45:35.698Z,929.17
2017-03-14T02:45:50.255Z,929.13
2017-03-14T02:46:05.070Z,929.21
2017-03-14T02:46:19.660Z,929.2
2017-03-14T02:46:34.214Z,929.17
2017-03-14T02:46:48.820Z,929.19
2017-03-14T02:47:03.397Z,929.17
2017-03-14T02:47:18.318Z,929.18
2017-03-14T02:47:33.225Z,929.2
2017-03-14T02:47:47.771Z,929.18
2017-03-14T02:48:02.400Z,929.16
2017-03-14T02:48:17.001Z,929.17
2017-03-14T02:48:31.575Z,929.17
2017-03-14T02:48:46.163Z,929.2
2017-03-14T02:49:00.750Z,929.15
2017-03-14T02:49:15.292Z,929.2
2017-03-14T02:49:29.859Z,929.09
2017-03-14T02:49:44.464Z,929.13
2017-03-14T02:49:59.066Z,929.13
2017-03-14T02:50:13.635Z,929.11
2017-03-14T02:50:28.222Z,929.14
2017-03-14T02:50:42.783Z,929.16
2017-03-14T02:50:57.351Z,929.14
2017-03-14T02:51:11.886Z,929.12
2017-03-14T02:51:26.490Z,929.2
2017-03-14T02:51:41.089Z,929.11
2017-03-14T02:51:55.658Z,929.12
2017-03-14T02:52:10.256Z,929.11
2017-03-14T02:52:24.881Z,929.12
2017-03-14T02:52:39.447Z,929.13
2017-03-14T02:52:54.200Z,929.22
2017-03-14T02:53:08.721Z,929.19
2017-03-14T02:53:23.326Z,929.13
2017-03-14T02:53:37.978Z,929.13
2017-03-14T02:53:52.567Z,929.18
2017-03-14T02:54:07.092Z,929.14
2017-03-14T02:54:21.677Z,929.17
2017-03-14T02:54:36.241Z,929.18
2017-03-14T02:54:51.112Z,929.19
2017-03-14T02:55:05.718Z,929.2
2017-03-14T02:55:20.278Z,929.22
2017-03-14T02:55:34.849Z,929.16
2017-03-14T02:55:49.402Z,929.2
2017-03-14T02:56:03.963Z,929.23
2017-03-14T02:56:18.516Z,929.16
2017-03-14T02:56:33.069Z,929.2
2017-03-14T02:56:47.658Z,929.2
2017-03-14T02:57:02.189Z,929.19
2017-03-14T02:57:17.059Z,929.29
2017-03-14T02:57:31.592Z,929.22
2017-03-14T02:57:46.188Z,929.23
2017-03-14T02:58:00.790Z,929.24
2017-03-14T02:58:15.628Z,929.23
2017-03-14T02:58:31.055Z,929.23
2017-03-14T02:58:45.609Z,929.22
2017-03-14T02:59:00.237Z,929.27
2017-03-14T02:59:14.782Z,929.29
2017-03-14T02:59:29.363Z,929.27
2017-03-14T02:59:43.953Z,929.36
2017-03-14T02:59:58.886Z,929.29
2017-03-14T03:00:13.430Z,929.31
2017-03-14T03:00:27.986Z,929.28
2017-03-14T03:00:42.594Z,929.24
2017-03-14T03:00:57.212Z,929.25
2017-03-14T03:01:11.841Z,929.27
2017-03-14T03:01:26.403Z,929.29
2017-03-14T03:01:41.020Z,929.32
2017-03-14T03:01:55.674Z,929.28
2017-03-14T03:02:10.326Z,929.29
2017-03-14T03:02:24.917Z,929.3
2017-03-14T03:02:39.485Z,929.36
2017-03-14T03:02:54.015Z,929.3
2017-03-14T03:03:08.565Z,929.31
2017-03-14T03:03:23.091Z,929.31
2017-03-14T03:03:37.695Z,929.33
2017-03-14T03:03:52.285Z,929.33
2017-03-14T03:04:06.894Z,929.33
2017-03-14T03:04:21.497Z,929.29
2017-03-14T03:04:36.108Z,929.25
2017-03-14T03:04:50.771Z,929.29
2017-03-14T03:05:05.345Z,929.29
2017-03-14T03:05:19.908Z,929.28
2017-03-14T03:05:34.474Z,929.29
2017-03-14T03:05:49.130Z,929.27
2017-03-14T03:06:03.735Z,929.27
2017-03-14T03:06:18.281Z,929.28
2017-03-14T03:06:32.901Z,929.27
2017-03-14T03:06:47.429Z,929.34
2017-03-14T03:07:02.019Z,929.26
2017-03-14T03:07:16.565Z,929.3
2017-03-14T03:07:31.124Z,929.27
2017-03-14T03:07:45.762Z,929.29
2017-03-14T03:08:00.337Z,929.32
2017-03-14T03:08:14.912Z,929.26
2017-03-14T03:08:29.411Z,929.28
2017-03-14T03:08:44.038Z,929.28
2017-03-14T03:08:58.648Z,929.26
2017-03-14T03:09:13.214Z,929.23
2017-03-14T03:09:27.823Z,929.22
2017-03-14T03:09:42.385Z,929.25
2017-03-14T03:09:56.902Z,929.26
2017-03-14T03:10:11.399Z,929.23
2017-03-14T03:10:26.048Z,929.28
2017-03-14T03:10:40.578Z,929.26
2017-03-14T03:10:55.108Z,929.23
2017-03-14T03:11:09.670Z,929.22
2017-03-14T03:11:24.265Z,929.28
2017-03-14T03:11:38.901Z,929.22
2017-03-14T03:11:53.461Z,929.23
2017-03-14T03:12:08.026Z,929.22
2017-03-14T03:12:22.567Z,929.25
2017-03-14T03:12:37.156Z,929.27
2017-03-14T03:12:51.750Z,929.23
2017-03-14T03:13:06.352Z,929.2
2017-03-14T03:13:20.927Z,929.19
2017-03-14T03:13:35.553Z,929.19
2017-03-14T03:13:50.095Z,929.2
2017-03-14T03:14:04.702Z,929.18
2017-03-14T03:14:19.255Z,929.2
2017-03-14T03:14:33.807Z,929.18
2017-03-14T03:14:48.413Z,929.19
2017-03-14T03:15:03.164Z,929.3
2017-03-14T03:15:17.759Z,929.21
2017-03-14T03:15:32.333Z,929.21
2017-03-14T03:15:46.937Z,929.15
2017-03-14T03:16:01.496Z,929.18
2017-03-14T03:16:16.049Z,929.17
2017-03-14T03:16:30.703Z,929.12
2017-03-14T03:16:45.323Z,929.19
2017-03-14T03:16:59.866Z,929.17
2017-03-14T03:17:14.418Z,929.14
2017-03-14T03:17:28.898Z,929.14
2017-03-14T03:17:43.501Z,929.16
2017-03-14T03:17:58.093Z,929.13
2017-03-14T03:18:12.637Z,929.12
2017-03-14T03:18:27.219Z,929.12
2017-03-14T03:18:41.799Z,929.1
2017-03-14T03:18:56.398Z,929.21
2017-03-14T03:19:11.007Z,929.14
2017-03-14T03:19:25.580Z,929.07
2017-03-14T03:19:40.160Z,929.09
2017-03-14T03:19:54.734Z,929.11
2017-03-14T03:20:09.281Z,929.13
2017-03-14T03:20:23.854Z,929.13
2017-03-14T03:20:38.413Z,929.06
2017-03-14T03:20:52.986Z,929.04
2017-03-14T03:21:07.555Z,929.09
2017-03-14T03:21:22.178Z,929.1
2017-03-14T03:21:36.703Z,929.11
2017-03-14T03:21:51.278Z,929.13
2017-03-14T03:22:05.844Z,929.05
2017-03-14T03:22:20.458Z,929.08
2017-03-14T03:22:35.081Z,929.17
2017-03-14T03:22:49.870Z,929.12
2017-03-14T03:23:04.447Z,929.13
2017-03-14T03:23:19.009Z,929.09
2017-03-14T03:23:33.522Z,929.1
2017-03-14T03:23:48.011Z,929.12
2017-03-14T03:24:02.572Z,929.09
2017-03-14T03:24:17.146Z,929.09
2017-03-14T03:24:31.628Z,929.08
2017-03-14T03:24:46.127Z,929.13
2017-03-14T03:25:00.640Z,929.13
2017-03-14T03:25:15.926Z,929.11
2017-03-14T03:25:30.731Z,929.16
2017-03-14T03:25:45.364Z,929.14
2017-03-14T03:25:59.917Z,929.13
2017-03-14T03:26:14.455Z,929.12
2017-03-14T03:26:29.007Z,929.19
2017-03-14T03:26:43.596Z,929.14
2017-03-14T03:26:58.188Z,929.11
2017-03-14T03:27:12.715Z,929.03
2017-03-14T03:27:27.275Z,929.08
2017-03-14T03:27:41.850Z,929.09
2017-03-14T03:27:56.441Z,929.06
2017-03-14T03:28:10.937Z,929.11
2017-03-14T03:28:25.532Z,929.12
2017-03-14T03:28:40.174Z,929.08
2017-03-14T03:28:54.749Z,929.05
2017-03-14T03:29:09.286Z,929.09
2017-03-14T03:29:23.881Z,929.06
2017-03-14T03:29:38.472Z,929.09
2017-03-14T03:29:53.070Z,929.06
2017-03-14T03:30:08.059Z,929.09
2017-03-14T03:30:22.658Z,929.09
2017-03-14T03:30:37.317Z,929.1
2017-03-14T03:30:51.838Z,929.11
2017-03-14T03:31:06.427Z,929.07
2017-03-14T03:31:21.000Z,929.05
2017-03-14T03:31:35.550Z,929.07
2017-03-14T03:31:50.079Z,929.05
2017-03-14T03:32:04.598Z,929.11
2017-03-14T03:32:19.192Z,929.09
2017-03-14T03:32:33.791Z,929.11
2017-03-14T03:32:48.369Z,929.06
2017-03-14T03:33:02.906Z,929.12
2017-03-14T03:33:17.495Z,929.07
2017-03-14T03:33:32.093Z,929.14
2017-03-14T03:33:46.627Z,929.1
2017-03-14T03:34:01.134Z,929.09
2017-03-14T03:34:15.721Z,929.07
2017-03-14T03:34:30.324Z,929.09
2017-03-14T03:34:44.819Z,929.11
2017-03-14T03:34:59.384Z,929.09
2017-03-14T03:35:14.027Z,929.12
2017-03-14T03:35:28.547Z,929.11
2017-03-14T03:35:43.141Z,929.09
2017-03-14T03:35:57.721Z,929.11
2017-03-14T03:36:12.244Z,929.08
2017-03-14T03:36:26.839Z,929.06
2017-03-14T03:36:41.386Z,929.08
2017-03-14T03:36:55.910Z,929.03
2017-03-14T03:37:10.438Z,929.12
2017-03-14T03:37:25.117Z,929.09
2017-03-14T03:37:39.646Z,929.15
2017-03-14T03:37:54.160Z,929.14
2017-03-14T03:38:08.728Z,929.13
2017-03-14T03:38:23.314Z,929.1
2017-03-14T03:38:37.912Z,929.07
2017-03-14T03:38:52.464Z,929.09
2017-03-14T03:39:07.035Z,929.07
2017-03-14T03:39:21.577Z,929.11
2017-03-14T03:39:36.140Z,929.08
2017-03-14T03:39:50.682Z,929.11
2017-03-14T03:40:05.246Z,929.08
2017-03-14T03:40:19.754Z,929.06
2017-03-14T03:40:34.330Z,929.06
2017-03-14T03:40:48.918Z,929.04
2017-03-14T03:41:03.518Z,929.06
2017-03-14T03:41:18.087Z,929.08
2017-03-14T03:41:32.619Z,929.07
2017-03-14T03:41:47.135Z,929.1